Time;durP1;ratioP1;P1;durP2;ratioP2;P2;SDS_P1;SDS_P2;PMS_P1;PMS_P2;Temp;Humidity;BMP_temperature;BMP_pressure;BME280_temperature;BME280_humidity;BME280_pressure;Samples;Min_cycle;Max_cycle;Signal;HPM_P1;HPM_P2
2022/05/27 00:00:41;;;;;;;6.03;3.77;;;15.00;99.90;;;;;;4996124;28;20214;-81
2022/05/27 00:03:07;;;;;;;8.17;4.13;;;15.00;99.90;;;;;;4996711;28;20179;-81
2022/05/27 00:05:32;;;;;;;7.80;3.97;;;14.90;99.90;;;;;;4996550;28;20202;-82
2022/05/27 00:07:58;;;;;;;7.20;4.20;;;14.80;99.90;;;;;;4996945;28;20175;-81
2022/05/27 00:10:24;;;;;;;13.10;4.97;;;14.80;99.90;;;;;;4997412;28;20672;-82
2022/05/27 00:12:49;;;;;;;7.47;5.03;;;14.70;99.90;;;;;;4996520;28;20182;-81
2022/05/27 00:15:15;;;;;;;11.10;5.60;;;14.60;99.90;;;;;;4996024;28;20186;-82
2022/05/27 00:17:41;;;;;;;9.17;4.97;;;14.60;99.90;;;;;;4996272;28;20264;-82
2022/05/27 00:20:08;;;;;;;9.23;4.53;;;14.50;99.90;;;;;;4996364;28;20282;-82
2022/05/27 00:22:34;;;;;;;12.33;5.40;;;14.40;99.90;;;;;;4995736;28;20706;-82
2022/05/27 00:25:00;;;;;;;6.60;4.70;;;14.50;99.90;;;;;;4996582;28;20183;-81
2022/05/27 00:27:26;;;;;;;10.37;4.80;;;14.40;99.90;;;;;;4996258;28;20190;-81
2022/05/27 00:29:51;;;;;;;7.13;4.70;;;14.30;99.90;;;;;;4995772;28;20628;-81
2022/05/27 00:32:17;;;;;;;12.60;5.10;;;14.40;99.90;;;;;;4995822;28;20548;-81
2022/05/27 00:34:43;;;;;;;14.17;5.07;;;14.20;99.90;;;;;;4995034;28;20259;-81
2022/05/27 00:37:09;;;;;;;7.73;4.93;;;14.30;99.90;;;;;;4995482;28;20210;-82
2022/05/27 00:39:38;;;;;;;8.10;4.60;;;14.20;99.90;;;;;;4996779;28;20182;-81
2022/05/27 00:42:05;;;;;;;10.87;5.63;;;14.20;99.90;;;;;;4995891;28;20675;-82
2022/05/27 00:44:31;;;;;;;8.97;5.10;;;14.20;99.90;;;;;;4996096;28;20183;-81
2022/05/27 00:47:03;;;;;;;7.87;5.10;;;14.20;99.90;;;;;;4995977;28;20186;-82
2022/05/27 00:49:29;;;;;;;7.87;5.30;;;14.10;99.90;;;;;;4995717;28;20256;-81
2022/05/27 00:52:04;;;;;;;6.50;5.17;;;14.20;99.90;;;;;;4995242;28;20198;-81
2022/05/27 00:54:30;;;;;;;13.60;4.80;;;14.10;99.90;;;;;;4996177;28;20193;-82
2022/05/27 00:57:07;;;;;;;7.17;5.10;;;14.10;99.90;;;;;;4996256;28;20206;-82
2022/05/27 00:59:57;;;;;;;9.13;5.10;;;14.10;99.90;;;;;;4994444;28;20185;-82
2022/05/27 01:02:23;;;;;;;8.43;5.57;;;14.10;99.90;;;;;;4994012;28;20203;-82
2022/05/27 01:04:50;;;;;;;7.73;5.10;;;14.10;99.90;;;;;;4994272;28;20209;-82
2022/05/27 01:07:15;;;;;;;15.43;6.00;;;14.10;99.90;;;;;;4994165;28;20222;-81
2022/05/27 01:09:44;;;;;;;7.73;5.37;;;14.10;99.90;;;;;;4994243;28;20189;-82
2022/05/27 01:12:37;;;;;;;8.50;5.10;;;14.00;99.90;;;;;;4995451;28;20669;-82
2022/05/27 01:15:34;;;;;;;9.03;4.97;;;14.10;99.90;;;;;;4995834;28;20178;-82
2022/05/27 01:18:21;;;;;;;7.87;5.20;;;14.00;99.90;;;;;;4993842;28;20206;-81
2022/05/27 01:21:05;;;;;;;8.63;5.73;;;14.10;99.90;;;;;;4993223;28;20206;-81
2022/05/27 01:23:49;;;;;;;9.03;5.90;;;14.00;99.90;;;;;;4993847;28;20264;-81
2022/05/27 01:26:33;;;;;;;12.13;6.83;;;13.90;99.90;;;;;;4994242;28;20182;-81
2022/05/27 01:29:19;;;;;;;8.43;5.93;;;14.00;99.90;;;;;;4996148;28;20182;-82
2022/05/27 01:32:31;;;;;;;9.07;6.67;;;14.00;99.90;;;;;;4955889;28;20208;-81
2022/05/27 01:35:28;;;;;;;11.53;6.43;;;14.00;99.90;;;;;;4993913;28;20185;-81
2022/05/27 01:38:21;;;;;;;12.30;7.30;;;14.00;99.90;;;;;;4996705;28;20206;-81
2022/05/27 01:41:02;;;;;;;12.03;6.90;;;14.00;99.90;;;;;;4995144;28;20236;-81
2022/05/27 01:43:49;;;;;;;13.17;7.87;;;14.00;99.90;;;;;;4993953;28;20189;-81
2022/05/27 01:46:29;;;;;;;12.83;8.03;;;13.90;99.90;;;;;;4993769;28;20276;-81
2022/05/27 01:49:01;;;;;;;9.90;7.20;;;13.90;99.90;;;;;;4993541;28;20638;-80
2022/05/27 01:51:36;;;;;;;17.13;8.30;;;13.90;99.90;;;;;;4993293;28;20236;-81
2022/05/27 01:54:34;;;;;;;10.80;8.77;;;13.80;99.90;;;;;;4993461;28;20271;-81
2022/05/27 01:57:17;;;;;;;13.50;8.97;;;13.80;99.90;;;;;;4988700;28;20222;-80
2022/05/27 01:59:57;;;;;;;16.13;8.83;;;13.80;99.90;;;;;;4994273;28;20643;-81
2022/05/27 02:02:25;;;;;;;20.37;9.67;;;13.70;99.90;;;;;;4991943;28;20197;-80
2022/05/27 02:04:58;;;;;;;14.13;9.70;;;13.80;99.90;;;;;;4992846;28;20209;-80
2022/05/27 02:07:35;;;;;;;15.13;10.10;;;13.80;99.90;;;;;;4992518;28;20189;-79
2022/05/27 02:10:13;;;;;;;15.83;10.60;;;13.80;99.90;;;;;;4992867;28;20182;-79
2022/05/27 02:12:48;;;;;;;17.50;10.43;;;13.70;99.90;;;;;;4992697;28;20217;-79
2022/05/27 02:15:23;;;;;;;14.87;10.73;;;13.70;99.90;;;;;;4993337;28;20244;-80
2022/05/27 02:18:04;;;;;;;21.17;11.47;;;13.70;99.90;;;;;;4992846;28;20235;-80
2022/05/27 02:20:36;;;;;;;19.17;10.93;;;13.70;99.90;;;;;;5025028;28;20205;-80
2022/05/27 02:23:10;;;;;;;17.73;11.07;;;13.70;99.90;;;;;;4992705;28;20719;-80
2022/05/27 02:25:39;;;;;;;16.70;10.07;;;13.70;99.90;;;;;;4993215;28;20651;-80
2022/05/27 02:28:37;;;;;;;15.13;10.60;;;13.70;99.90;;;;;;4994488;28;20248;-79
2022/05/27 02:31:09;;;;;;;21.00;11.27;;;13.70;99.90;;;;;;4978175;28;20213;-80
2022/05/27 02:36:33;;;;;;;17.70;9.70;;;13.80;99.90;;;;;;4994677;28;20661;-80
2022/05/27 02:38:59;;;;;;;19.30;10.07;;;13.70;99.90;;;;;;4994016;28;20170;-80
2022/05/27 02:41:34;;;;;;;16.70;9.40;;;13.70;99.90;;;;;;4996425;28;20698;-80
2022/05/27 02:44:12;;;;;;;16.50;8.57;;;13.70;99.90;;;;;;4996383;28;20615;-80
2022/05/27 02:46:46;;;;;;;12.30;8.73;;;13.70;99.90;;;;;;4996098;28;20701;-80
2022/05/27 02:49:35;;;;;;;11.80;7.80;;;13.80;99.90;;;;;;4996578;28;20182;-80
2022/05/27 02:52:00;;;;;;;13.43;7.67;;;13.70;99.90;;;;;;4996052;28;20255;-80
2022/05/27 02:54:31;;;;;;;11.10;7.00;;;13.60;99.90;;;;;;4996146;28;20648;-79
2022/05/27 02:57:17;;;;;;;12.70;6.90;;;13.60;99.90;;;;;;4995931;28;20237;-80
2022/05/27 02:59:43;;;;;;;9.40;5.93;;;13.60;99.90;;;;;;4995890;28;20205;-80
2022/05/27 03:02:12;;;;;;;9.33;5.53;;;13.50;99.90;;;;;;4995800;28;20660;-80
2022/05/27 03:04:43;;;;;;;14.50;5.90;;;13.50;99.90;;;;;;4996084;28;20285;-80
2022/05/27 03:07:28;;;;;;;10.77;5.50;;;13.50;99.90;;;;;;4996338;28;20221;-80
2022/05/27 03:10:20;;;;;;;10.13;5.83;;;13.50;99.90;;;;;;4995910;28;20564;-80
2022/05/27 03:13:11;;;;;;;7.60;5.50;;;13.50;99.90;;;;;;4995736;28;20273;-80
2022/05/27 03:16:14;;;;;;;7.47;5.67;;;13.40;99.90;;;;;;4995663;28;20179;-80
2022/05/27 03:18:58;;;;;;;16.50;5.70;;;13.40;99.90;;;;;;4995413;28;20199;-80
2022/05/27 03:21:27;;;;;;;8.37;5.60;;;13.40;99.90;;;;;;4995329;28;20809;-80
2022/05/27 03:24:19;;;;;;;8.00;5.70;;;13.50;99.90;;;;;;4994843;28;20201;-80
2022/05/27 03:27:23;;;;;;;10.07;6.07;;;13.50;99.90;;;;;;4996217;28;20173;-81
2022/05/27 03:29:52;;;;;;;11.47;5.73;;;13.50;99.90;;;;;;4997228;28;20169;-80
2022/05/27 03:32:50;;;;;;;11.60;6.73;;;13.40;99.90;;;;;;4998467;28;20827;-81
2022/05/27 03:35:31;;;;;;;12.47;6.03;;;13.40;99.90;;;;;;4982353;28;20193;-80
2022/05/27 03:38:25;;;;;;;8.63;6.37;;;13.40;99.90;;;;;;4999384;28;20209;-81
2022/05/27 03:41:16;;;;;;;11.93;7.00;;;13.40;99.90;;;;;;5000154;28;20195;-80
2022/05/27 03:43:44;;;;;;;11.30;6.70;;;13.50;99.90;;;;;;5000373;28;20197;-81
2022/05/27 03:46:09;;;;;;;10.30;6.70;;;13.40;99.90;;;;;;5000919;28;20190;-80
2022/05/27 03:48:36;;;;;;;9.80;6.50;;;13.40;99.90;;;;;;4998708;28;20182;-80
2022/05/27 03:51:19;;;;;;;9.07;7.03;;;13.50;99.90;;;;;;4998133;28;20194;-81
2022/05/27 03:54:03;;;;;;;11.37;6.67;;;13.50;99.90;;;;;;4999504;28;20175;-80
2022/05/27 03:56:33;;;;;;;9.53;6.67;;;13.50;99.90;;;;;;4998966;28;20531;-81
2022/05/27 03:59:00;;;;;;;9.57;6.80;;;13.40;99.90;;;;;;4998315;28;20237;-81
2022/05/27 04:01:29;;;;;;;8.33;6.53;;;13.50;99.90;;;;;;5000919;28;20214;-80
2022/05/27 04:03:57;;;;;;;10.17;6.97;;;13.50;99.90;;;;;;4999509;28;20203;-80
2022/05/27 04:06:22;;;;;;;13.87;6.73;;;13.40;99.90;;;;;;5000375;28;20639;-80
2022/05/27 04:08:48;;;;;;;10.90;6.07;;;13.40;99.90;;;;;;4999650;28;20182;-80
2022/05/27 04:11:14;;;;;;;10.17;6.17;;;13.40;99.90;;;;;;4998484;28;20205;-80
2022/05/27 04:13:39;;;;;;;10.80;6.03;;;13.40;99.90;;;;;;4999474;28;20171;-80
2022/05/27 04:16:05;;;;;;;11.97;6.17;;;13.40;99.90;;;;;;4999345;28;20185;-80
2022/05/27 04:18:31;;;;;;;10.27;6.00;;;13.40;99.90;;;;;;4999916;28;20205;-80
2022/05/27 04:20:56;;;;;;;9.97;6.73;;;13.40;99.90;;;;;;4998347;28;20198;-80
2022/05/27 04:23:22;;;;;;;8.63;5.87;;;13.40;99.90;;;;;;4997870;28;20654;-80
2022/05/27 04:25:49;;;;;;;9.20;6.27;;;13.40;99.90;;;;;;4999240;28;20662;-80
2022/05/27 04:28:16;;;;;;;10.00;6.20;;;13.40;99.90;;;;;;4998643;28;20190;-80
2022/05/27 04:30:42;;;;;;;11.67;6.30;;;13.40;99.90;;;;;;4999782;28;20199;-80
2022/05/27 04:33:09;;;;;;;11.27;6.07;;;13.40;99.90;;;;;;4996724;28;20547;-80
2022/05/27 04:35:35;;;;;;;10.47;6.23;;;13.50;99.90;;;;;;4995857;28;20183;-80
2022/05/27 04:38:01;;;;;;;10.03;6.33;;;13.50;99.90;;;;;;4996104;28;20603;-80
2022/05/27 04:40:26;;;;;;;8.47;5.70;;;13.60;99.90;;;;;;4994941;28;20190;-80
2022/05/27 04:42:52;;;;;;;7.73;5.00;;;13.70;99.90;;;;;;4994518;28;20179;-81
2022/05/27 04:45:20;;;;;;;6.43;4.70;;;13.70;99.90;;;;;;4996668;28;20175;-80
2022/05/27 04:47:46;;;;;;;7.30;4.30;;;13.80;99.90;;;;;;4994080;28;20179;-80
2022/05/27 04:50:11;;;;;;;7.30;4.70;;;13.80;99.90;;;;;;4994913;28;20636;-80
2022/05/27 04:52:38;;;;;;;6.33;4.60;;;13.90;99.90;;;;;;4995269;28;20178;-80
2022/05/27 04:55:07;;;;;;;8.57;4.47;;;14.00;99.90;;;;;;4995997;28;20663;-80
2022/05/27 04:57:41;;;;;;;9.53;4.47;;;13.90;99.90;;;;;;4994432;28;20893;-80
2022/05/27 05:00:26;;;;;;;8.47;4.67;;;14.00;99.90;;;;;;4994307;28;20258;-80
2022/05/27 05:02:52;;;;;;;6.67;4.33;;;14.30;99.90;;;;;;4994308;28;20172;-80
2022/05/27 05:05:20;;;;;;;7.90;4.47;;;14.20;99.90;;;;;;4994826;28;20172;-80
2022/05/27 05:07:50;;;;;;;7.83;4.83;;;14.10;99.90;;;;;;4994176;28;20210;-80
2022/05/27 05:10:19;;;;;;;8.10;4.40;;;14.10;99.90;;;;;;4993807;28;20609;-79
2022/05/27 05:12:45;;;;;;;6.13;4.50;;;14.00;99.90;;;;;;4993864;28;20206;-80
2022/05/27 05:15:12;;;;;;;11.40;5.30;;;13.90;99.90;;;;;;4993262;28;20185;-80
2022/05/27 05:17:38;;;;;;;8.63;5.00;;;14.00;99.90;;;;;;4993597;28;20214;-79
2022/05/27 05:20:05;;;;;;;8.03;3.90;;;14.10;99.90;;;;;;4993241;28;20167;-79
2022/05/27 05:22:31;;;;;;;7.63;4.20;;;14.50;99.90;;;;;;4993367;28;20356;-80
2022/05/27 05:24:59;;;;;;;7.13;3.97;;;14.80;99.90;;;;;;4995274;28;20214;-81
2022/05/27 05:27:26;;;;;;;7.57;3.60;;;14.70;99.90;;;;;;4995293;28;20171;-80
2022/05/27 05:29:53;;;;;;;4.97;3.60;;;14.90;99.90;;;;;;4995711;28;20198;-80
2022/05/27 05:32:19;;;;;;;5.83;3.90;;;14.90;99.90;;;;;;4995703;28;20565;-80
2022/05/27 05:34:45;;;;;;;5.37;3.90;;;15.00;99.90;;;;;;4997935;28;20179;-81
2022/05/27 05:37:10;;;;;;;6.87;3.80;;;15.20;99.90;;;;;;4998570;28;20199;-81
2022/05/27 05:39:39;;;;;;;8.37;3.90;;;15.10;99.90;;;;;;4997918;28;20229;-81
2022/05/27 05:42:06;;;;;;;8.50;3.13;;;14.80;99.90;;;;;;4997977;28;20195;-81
2022/05/27 05:44:33;;;;;;;5.03;3.50;;;15.20;99.90;;;;;;4997978;28;20742;-80
2022/05/27 05:46:59;;;;;;;5.17;2.90;;;15.40;99.90;;;;;;4997781;28;20176;-81
2022/05/27 05:49:26;;;;;;;8.13;2.50;;;15.60;99.90;;;;;;4997748;28;20182;-81
2022/05/27 05:51:53;;;;;;;7.33;2.57;;;15.80;99.90;;;;;;4997150;28;20324;-81
2022/05/27 05:54:19;;;;;;;3.33;2.30;;;15.70;99.90;;;;;;4998675;28;20175;-81
2022/05/27 05:56:46;;;;;;;6.60;2.90;;;15.70;99.90;;;;;;4998119;28;20245;-81
2022/05/27 05:59:12;;;;;;;8.23;2.57;;;15.60;99.90;;;;;;4996815;28;20628;-81
2022/05/27 06:01:39;;;;;;;7.67;2.47;;;15.90;99.90;;;;;;4997970;28;20207;-81
2022/05/27 06:04:04;;;;;;;3.47;2.20;;;16.20;99.90;;;;;;4999663;28;20262;-81
2022/05/27 06:06:31;;;;;;;8.17;2.40;;;16.40;99.90;;;;;;4997933;28;20203;-81
2022/05/27 06:08:56;;;;;;;5.80;2.30;;;16.90;99.90;;;;;;4996247;28;20183;-81
2022/05/27 06:11:22;;;;;;;11.17;2.10;;;16.50;99.90;;;;;;4995712;28;20249;-81
2022/05/27 06:13:47;;;;;;;5.77;2.07;;;16.30;99.90;;;;;;4997168;28;20179;-81
2022/05/27 06:16:13;;;;;;;6.87;2.33;;;16.40;99.90;;;;;;5000241;28;20179;-81
2022/05/27 06:18:39;;;;;;;6.18;2.28;;;16.60;99.90;;;;;;5000020;28;20207;-81
2022/05/27 06:21:05;;;;;;;5.87;2.17;;;16.90;99.90;;;;;;4999085;28;20218;-81
2022/05/27 06:23:30;;;;;;;12.18;2.38;;;16.90;99.90;;;;;;4999556;28;20171;-81
2022/05/27 06:25:58;;;;;;;3.65;2.03;;;16.80;99.90;;;;;;4999351;28;20186;-80
2022/05/27 06:36:39;;;;;;;4.88;1.75;;;17.00;99.90;;;;;;4999258;28;20187;-81
2022/05/27 06:39:06;;;;;;;6.07;2.07;;;17.20;99.90;;;;;;5000624;28;20167;-81
2022/05/27 06:41:32;;;;;;;4.53;1.90;;;17.70;99.90;;;;;;5000607;28;20733;-81
2022/05/27 06:43:57;;;;;;;7.95;1.75;;;17.90;99.90;;;;;;4998995;28;20210;-81
2022/05/27 06:46:23;;;;;;;10.73;2.08;;;17.80;99.90;;;;;;4999821;28;20175;-81
2022/05/27 06:48:49;;;;;;;5.53;1.73;;;17.70;99.90;;;;;;5000203;28;20639;-81
2022/05/27 06:51:14;;;;;;;9.45;2.17;;;17.90;99.90;;;;;;4999305;28;20195;-82
2022/05/27 06:53:40;;;;;;;8.88;2.33;;;18.50;99.90;;;;;;4998501;28;20176;-82
2022/05/27 06:56:08;;;;;;;9.18;1.60;;;18.50;99.90;;;;;;4998540;28;20171;-82
2022/05/27 06:58:34;;;;;;;9.98;2.38;;;18.20;99.90;;;;;;4997238;28;20206;-81
2022/05/27 07:01:00;;;;;;;10.70;2.15;;;18.50;99.90;;;;;;4997732;28;20655;-82
2022/05/27 07:03:26;;;;;;;6.10;2.00;;;18.50;99.90;;;;;;4997918;28;20171;-81
2022/05/27 07:05:52;;;;;;;8.07;2.30;;;18.20;99.90;;;;;;4997802;28;20182;-82
2022/05/27 07:08:17;;;;;;;6.03;2.20;;;17.40;99.90;;;;;;4996164;28;20177;-81
2022/05/27 07:10:43;;;;;;;11.73;2.37;;;16.80;99.90;;;;;;4994225;28;20206;-81
2022/05/27 07:13:09;;;;;;;11.10;2.20;;;16.90;99.90;;;;;;4995093;28;20587;-81
2022/05/27 07:15:35;;;;;;;5.77;2.10;;;17.40;99.90;;;;;;4994862;28;20544;-81
2022/05/27 07:18:06;;;;;;;8.37;2.30;;;17.00;99.90;;;;;;4995225;28;20226;-81
2022/05/27 07:20:33;;;;;;;6.03;2.00;;;16.80;99.90;;;;;;4994582;28;20191;-80
2022/05/27 07:22:58;;;;;;;7.90;1.87;;;17.00;99.90;;;;;;4994852;28;20175;-81
2022/05/27 07:25:24;;;;;;;6.10;1.97;;;16.90;99.90;;;;;;4995075;28;20167;-81
2022/05/27 07:27:50;;;;;;;9.97;2.27;;;17.20;99.90;;;;;;4995401;28;20175;-82
2022/05/27 07:30:15;;;;;;;9.40;2.00;;;17.50;99.90;;;;;;4996477;28;20182;-81
2022/05/27 07:32:43;;;;;;;8.00;1.90;;;18.50;99.90;;;;;;4995440;28;20659;-82
2022/05/27 07:35:10;;;;;;;6.40;2.17;;;18.80;99.90;;;;;;4996992;28;20229;-80
2022/05/27 07:37:36;;;;;;;6.10;1.80;;;18.80;99.90;;;;;;4996539;28;20194;-82
2022/05/27 07:40:02;;;;;;;7.20;2.00;;;18.60;99.90;;;;;;4998009;28;20172;-82
2022/05/27 07:42:28;;;;;;;5.00;1.93;;;18.40;99.90;;;;;;4997163;28;20171;-82
2022/05/27 07:44:53;;;;;;;8.40;1.90;;;18.70;99.90;;;;;;4996671;28;20170;-81
2022/05/27 07:47:19;;;;;;;7.90;2.20;;;18.10;99.90;;;;;;4997003;28;20676;-81
2022/05/27 07:49:45;;;;;;;6.47;2.00;;;18.10;99.90;;;;;;4997253;28;20648;-81
2022/05/27 07:52:11;;;;;;;5.47;1.93;;;17.50;99.90;;;;;;4997041;28;20214;-81
2022/05/27 07:54:37;;;;;;;8.47;2.10;;;17.70;99.90;;;;;;4997240;28;20210;-80
2022/05/27 07:57:23;;;;;;;11.60;2.07;;;17.70;99.90;;;;;;4997217;28;20207;-81
2022/05/27 07:59:59;;;;;;;11.70;2.33;;;17.80;99.90;;;;;;4995907;28;20202;-81
2022/05/27 08:02:25;;;;;;;5.10;2.10;;;18.10;99.90;;;;;;4998332;28;20190;-81
2022/05/27 08:04:52;;;;;;;8.80;2.33;;;17.70;99.90;;;;;;4997239;28;20175;-81
2022/05/27 08:07:17;;;;;;;8.60;2.50;;;17.80;99.90;;;;;;4996941;28;20183;-81
2022/05/27 08:09:43;;;;;;;9.63;2.00;;;17.60;99.90;;;;;;4996237;28;20256;-81
2022/05/27 08:12:09;;;;;;;7.53;1.80;;;17.40;99.90;;;;;;4997197;28;20242;-81
2022/05/27 08:14:35;;;;;;;8.13;2.00;;;17.50;99.90;;;;;;4998984;28;20187;-81
2022/05/27 08:17:01;;;;;;;5.43;2.23;;;17.40;99.90;;;;;;4997751;28;20219;-81
2022/05/27 08:19:27;;;;;;;9.53;2.10;;;17.50;99.90;;;;;;4998585;28;20190;-81
2022/05/27 08:21:53;;;;;;;9.83;2.67;;;18.00;99.90;;;;;;4997178;28;20195;-81
2022/05/27 08:24:19;;;;;;;12.33;2.10;;;17.70;99.90;;;;;;4997201;28;20175;-81
2022/05/27 08:26:45;;;;;;;5.83;2.03;;;17.50;99.90;;;;;;4997158;28;20182;-81
2022/05/27 08:29:11;;;;;;;8.83;2.27;;;17.60;99.90;;;;;;4997971;28;20182;-80
2022/05/27 08:31:38;;;;;;;8.07;2.23;;;18.30;99.90;;;;;;4997051;28;20265;-81
2022/05/27 08:39:36;;;;;;;8.03;2.60;;;18.50;99.90;;;;;;4998218;28;20194;-81
2022/05/27 08:42:03;;;;;;;5.23;2.10;;;19.10;99.90;;;;;;4996250;28;20196;-81
2022/05/27 08:44:46;;;;;;;7.07;2.10;;;19.10;99.90;;;;;;4995698;28;20525;-81
2022/05/27 08:47:20;;;;;;;6.32;2.03;;;19.90;99.90;;;;;;4995382;28;20253;-80
2022/05/27 08:49:52;;;;;;;7.25;1.60;;;20.30;99.90;;;;;;4995449;28;20190;-81
2022/05/27 08:52:26;;;;;;;6.32;1.92;;;20.20;99.90;;;;;;4994922;28;20216;-81
2022/05/27 08:54:59;;;;;;;6.47;1.75;;;20.40;97.60;;;;;;4995051;28;20186;-81
2022/05/27 09:00:27;;;;;;;4.78;1.90;;;19.20;94.60;;;;;;4996235;28;20214;-80
2022/05/27 09:03:05;;;;;;;5.75;1.92;;;18.70;94.80;;;;;;4996648;28;20536;-80
2022/05/27 09:06:06;;;;;;;9.98;1.95;;;18.80;95.70;;;;;;4995168;28;20175;-80
2022/05/27 09:08:32;;;;;;;7.28;2.00;;;19.20;94.80;;;;;;4951739;28;20270;-80
2022/05/27 09:11:35;;;;;;;4.00;2.30;;;19.50;95.60;;;;;;4994476;28;20258;-80
2022/05/27 09:14:07;;;;;;;5.30;1.77;;;19.50;94.50;;;;;;4995026;28;20666;-80
2022/05/27 09:16:37;;;;;;;5.10;1.75;;;19.70;95.00;;;;;;4996012;28;20182;-81
2022/05/27 09:19:17;;;;;;;7.03;1.80;;;19.60;94.50;;;;;;4995273;28;20199;-81
2022/05/27 09:21:58;;;;;;;6.45;2.03;;;20.40;93.10;;;;;;4996786;28;20202;-81
2022/05/27 09:24:45;;;;;;;8.73;1.88;;;19.90;91.10;;;;;;4996830;28;20175;-82
2022/05/27 09:27:31;;;;;;;4.93;1.77;;;19.60;92.00;;;;;;4996353;28;20179;-81
2022/05/27 09:30:05;;;;;;;9.40;1.92;;;20.20;92.20;;;;;;4996481;28;20247;-81
2022/05/27 09:32:43;;;;;;;9.93;1.90;;;20.40;90.70;;;;;;4996515;28;20179;-81
2022/05/27 09:35:35;;;;;;;8.70;2.00;;;20.20;90.10;;;;;;4996143;28;20179;-83
2022/05/27 09:38:05;;;;;;;7.30;1.92;;;20.30;90.30;;;;;;4956687;28;20222;-81
2022/05/27 09:40:56;;;;;;;7.97;2.28;;;20.50;89.40;;;;;;4996900;28;20648;-81
2022/05/27 09:43:33;;;;;;;7.07;2.00;;;20.10;90.10;;;;;;4996144;28;20177;-81
2022/05/27 09:46:03;;;;;;;7.47;2.10;;;19.70;89.60;;;;;;4996081;28;20225;-81
2022/05/27 09:48:29;;;;;;;7.60;2.20;;;20.10;90.80;;;;;;4996033;28;20199;-81
2022/05/27 09:50:59;;;;;;;8.65;2.00;;;20.50;87.00;;;;;;4999708;28;20195;-81
2022/05/27 09:53:33;;;;;;;9.43;2.00;;;20.00;84.70;;;;;;4999797;28;20242;-81
2022/05/27 09:56:04;;;;;;;7.40;2.08;;;19.90;84.80;;;;;;5000880;28;20179;-81
2022/05/27 09:58:33;;;;;;;7.82;2.15;;;20.40;85.30;;;;;;4997568;28;20218;-81
2022/05/27 10:01:03;;;;;;;6.53;2.08;;;20.50;86.60;;;;;;4997511;28;20195;-81
2022/05/27 10:03:28;;;;;;;7.90;2.10;;;20.50;85.20;;;;;;4998825;28;20167;-81
2022/05/27 10:06:08;;;;;;;9.02;2.17;;;20.30;87.10;;;;;;4997108;28;20175;-81
2022/05/27 10:09:03;;;;;;;7.00;2.20;;;19.90;87.20;;;;;;4997267;28;20534;-80
2022/05/27 10:11:31;;;;;;;8.18;2.28;;;20.60;86.60;;;;;;4992512;28;20574;-81
2022/05/27 10:14:10;;;;;;;9.30;1.98;;;20.70;87.20;;;;;;4997344;28;20190;-81
2022/05/27 10:16:41;;;;;;;9.13;2.40;;;19.60;88.00;;;;;;4997674;28;20175;-80
2022/05/27 10:19:14;;;;;;;8.95;2.60;;;18.90;88.60;;;;;;4997440;28;20422;-80
2022/05/27 10:21:51;;;;;;;13.07;2.33;;;18.80;89.80;;;;;;4997623;28;20188;-81
2022/05/27 10:24:29;;;;;;;14.30;2.50;;;18.80;89.30;;;;;;4997618;28;20682;-81
2022/05/27 10:27:14;;;;;;;7.45;2.25;;;19.80;89.30;;;;;;4998574;28;20171;-81
2022/05/27 10:29:58;;;;;;;16.02;2.67;;;20.50;86.70;;;;;;4998246;28;20176;-81
2022/05/27 10:32:40;;;;;;;8.52;2.50;;;20.30;85.80;;;;;;4997109;28;20217;-81
2022/05/27 10:35:31;;;;;;;7.25;2.15;;;19.00;86.60;;;;;;4996949;28;20180;-80
2022/05/27 10:38:51;;;;;;;6.03;1.67;;;19.50;87.00;;;;;;4997562;28;20290;-81
2022/05/27 10:41:23;;;;;;;11.30;2.58;;;19.20;89.10;;;;;;4937973;29;20197;-81
2022/05/27 10:44:13;;;;;;;11.03;2.50;;;18.80;89.10;;;;;;4988118;28;20266;-81
2022/05/27 10:46:47;;;;;;;11.80;3.03;;;18.60;88.50;;;;;;4997371;28;20722;-81
2022/05/27 10:49:55;;;;;;;10.00;2.27;;;18.60;88.60;;;;;;4997550;28;20159;-81
2022/05/27 10:52:56;;;;;;;10.97;2.23;;;19.40;89.60;;;;;;4994429;28;20206;-81
2022/05/27 10:55:49;;;;;;;10.10;2.47;;;20.10;90.10;;;;;;4995129;28;20192;-81
2022/05/27 11:04:09;;;;;;;9.02;2.78;;;20.40;85.20;;;;;;4996091;28;20202;-81
2022/05/27 11:06:43;;;;;;;12.82;2.45;;;20.90;85.80;;;;;;4994342;28;20230;-81
2022/05/27 11:09:25;;;;;;;9.35;2.60;;;20.80;83.80;;;;;;4994216;28;20221;-81
2022/05/27 11:12:02;;;;;;;10.90;2.60;;;20.80;82.00;;;;;;4993884;28;20191;-81
2022/05/27 11:15:12;;;;;;;5.97;2.10;;;19.80;85.10;;;;;;4995656;28;20210;-81
2022/05/27 11:17:56;;;;;;;10.65;2.15;;;19.90;86.70;;;;;;4996034;28;20195;-81
2022/05/27 11:20:58;;;;;;;8.63;2.53;;;20.50;83.50;;;;;;4996029;28;20679;-81
2022/05/27 11:23:27;;;;;;;12.52;2.38;;;20.00;82.30;;;;;;4995942;28;20175;-80
2022/05/27 11:26:15;;;;;;;9.25;2.40;;;19.60;84.10;;;;;;4997056;28;20186;-81
2022/05/27 11:29:06;;;;;;;11.68;2.33;;;19.70;85.10;;;;;;4995544;28;20234;-81
2022/05/27 11:31:44;;;;;;;6.57;2.10;;;20.50;84.80;;;;;;4996549;28;20203;-80
2022/05/27 11:34:25;;;;;;;4.88;2.05;;;20.30;82.80;;;;;;4997959;28;20175;-80
2022/05/27 11:37:12;;;;;;;9.25;2.00;;;20.50;81.50;;;;;;4999080;28;20175;-80
2022/05/27 11:40:19;;;;;;;9.85;2.30;;;19.40;83.20;;;;;;4997454;28;20233;-81
2022/05/27 11:43:06;;;;;;;9.57;2.42;;;20.00;82.40;;;;;;4919163;29;20256;-80
2022/05/27 11:45:32;;;;;;;9.93;2.15;;;20.00;84.10;;;;;;5006882;28;20553;-81
2022/05/27 11:48:17;;;;;;;16.15;2.85;;;19.80;83.40;;;;;;4996719;28;20175;-81
2022/05/27 11:50:49;;;;;;;11.00;2.90;;;19.70;83.80;;;;;;4996495;28;20219;-81
2022/05/27 11:53:21;;;;;;;17.50;3.70;;;18.80;83.60;;;;;;4996377;28;20180;-81
2022/05/27 11:55:55;;;;;;;9.67;2.80;;;18.90;85.30;;;;;;4997219;28;20180;-81
2022/05/27 11:58:30;;;;;;;11.47;2.70;;;18.90;85.20;;;;;;4996980;28;20212;-81
2022/05/27 12:01:03;;;;;;;12.57;2.80;;;18.70;85.40;;;;;;4996694;28;20190;-80
2022/05/27 12:03:41;;;;;;;8.30;2.40;;;19.40;87.10;;;;;;4996660;28;20279;-81
2022/05/27 12:06:13;;;;;;;7.50;2.00;;;20.10;83.00;;;;;;4996807;28;20269;-81
2022/05/27 12:09:00;;;;;;;8.63;2.38;;;20.50;81.00;;;;;;4995964;28;20206;-81
2022/05/27 12:11:38;;;;;;;11.63;2.38;;;21.00;81.00;;;;;;4994560;28;20200;-81
2022/05/27 12:14:13;;;;;;;13.80;2.50;;;20.30;82.40;;;;;;4995973;28;20182;-81
2022/05/27 12:16:42;;;;;;;7.95;2.28;;;20.20;83.50;;;;;;4996112;28;20170;-81
2022/05/27 12:19:13;;;;;;;8.13;2.40;;;19.30;82.40;;;;;;4995219;28;20207;-81
2022/05/27 12:21:47;;;;;;;12.98;2.60;;;19.40;82.70;;;;;;4994934;28;20200;-81
2022/05/27 12:24:31;;;;;;;13.87;2.57;;;19.00;82.80;;;;;;4994928;28;20265;-80
2022/05/27 12:26:58;;;;;;;12.53;2.47;;;19.40;85.00;;;;;;4994364;28;20183;-80
2022/05/27 12:29:27;;;;;;;9.80;2.70;;;19.60;83.10;;;;;;4994282;28;20175;-80
2022/05/27 12:31:54;;;;;;;7.30;2.00;;;19.30;81.10;;;;;;4994334;28;20230;-81
2022/05/27 12:34:26;;;;;;;9.17;2.50;;;19.30;82.30;;;;;;4993261;28;20175;-80
2022/05/27 12:37:00;;;;;;;8.83;2.43;;;19.20;81.00;;;;;;4993300;28;20586;-80
2022/05/27 12:39:30;;;;;;;9.17;2.83;;;19.00;83.60;;;;;;4993783;28;20186;-81
2022/05/27 12:42:31;;;;;;;12.97;2.57;;;18.60;83.70;;;;;;4993402;28;20199;-80
2022/05/27 12:45:12;;;;;;;10.43;2.73;;;19.00;83.60;;;;;;4983677;28;20202;-81
2022/05/27 12:47:38;;;;;;;12.10;2.47;;;19.60;84.50;;;;;;4995164;28;20179;-81
2022/05/27 12:50:11;;;;;;;10.93;2.93;;;19.60;85.20;;;;;;4994586;28;20504;-80
2022/05/27 12:52:37;;;;;;;12.23;2.30;;;19.50;82.30;;;;;;4993196;28;20186;-80
2022/05/27 12:55:12;;;;;;;9.70;2.73;;;19.00;82.80;;;;;;4993458;28;20223;-81
2022/05/27 13:03:48;;;;;;;11.10;2.07;;;19.70;81.70;;;;;;4993615;28;20266;-80
2022/05/27 13:06:22;;;;;;;13.43;2.60;;;19.50;81.60;;;;;;4967413;28;20233;-80
2022/05/27 13:08:51;;;;;;;11.13;2.53;;;19.50;81.50;;;;;;4993714;28;20213;-80
2022/05/27 13:11:41;;;;;;;13.73;2.50;;;19.60;84.00;;;;;;4992548;28;20297;-80
2022/05/27 13:14:38;;;;;;;13.00;2.50;;;19.30;82.50;;;;;;4992416;28;20184;-81
2022/05/27 13:17:11;;;;;;;12.50;2.60;;;18.80;84.70;;;;;;4989027;28;20278;-80
2022/05/27 13:19:48;;;;;;;10.57;3.20;;;19.30;85.00;;;;;;4993502;28;20215;-80
2022/05/27 13:22:29;;;;;;;11.63;2.37;;;19.10;85.00;;;;;;4992537;28;20285;-81
2022/05/27 13:25:15;;;;;;;10.03;2.50;;;19.20;84.30;;;;;;4993361;28;20175;-80
2022/05/27 13:27:41;;;;;;;9.63;2.40;;;19.60;83.90;;;;;;4992578;28;20183;-80
2022/05/27 13:30:10;;;;;;;9.57;2.43;;;19.40;83.30;;;;;;4992963;28;20178;-81
2022/05/27 13:33:04;;;;;;;11.10;2.10;;;19.10;82.40;;;;;;4992252;28;20636;-80
2022/05/27 13:35:40;;;;;;;9.30;2.10;;;18.70;83.70;;;;;;4993369;28;20179;-81
2022/05/27 13:38:10;;;;;;;13.23;2.27;;;19.20;84.20;;;;;;4993881;28;20675;-80
2022/05/27 13:40:38;;;;;;;11.73;2.30;;;19.60;82.30;;;;;;4994314;28;20658;-80
2022/05/27 13:43:20;;;;;;;5.80;1.83;;;19.50;80.30;;;;;;4993815;28;20206;-81
2022/05/27 13:45:55;;;;;;;9.40;1.90;;;19.20;79.30;;;;;;4993861;28;20547;-80
2022/05/27 13:48:31;;;;;;;11.47;2.50;;;19.30;81.30;;;;;;4993971;28;20186;-81